Time;durP1;ratioP1;P1;durP2;ratioP2;P2;SDS_P1;SDS_P2;PMS_P1;PMS_P2;Temp;Humidity;BMP_temperature;BMP_pressure;BME280_temperature;BME280_humidity;BME280_pressure;Samples;Min_cycle;Max_cycle;Signal;HPM_P1;HPM_P2
2022/07/31 00:01:07;;;;;;;3.80;2.90;;;;;;;25.64;54.33;99287.56;5050309;28;20556;-36
2022/07/31 00:03:32;;;;;;;3.28;2.70;;;;;;;25.53;54.49;99273.41;5049889;28;20116;-36
2022/07/31 00:05:58;;;;;;;3.38;2.75;;;;;;;25.50;54.33;99266.69;5050349;28;20082;-36
2022/07/31 00:08:23;;;;;;;3.00;2.70;;;;;;;25.59;54.50;99263.19;5050203;28;20058;-36
2022/07/31 00:10:49;;;;;;;3.22;2.92;;;;;;;25.64;55.76;99280.19;5050512;28;20433;-36
2022/07/31 00:13:14;;;;;;;3.50;2.80;;;;;;;25.65;55.66;99289.97;5049848;28;20029;-36
2022/07/31 00:15:40;;;;;;;2.80;2.60;;;;;;;25.55;56.04;99293.78;5041234;28;20042;-36
2022/07/31 00:18:07;;;;;;;5.07;2.97;;;;;;;25.52;56.05;99288.97;5029901;28;20025;-36
2022/07/31 00:20:33;;;;;;;3.67;2.85;;;;;;;25.48;56.48;99289.91;5029870;28;20033;-36
2022/07/31 00:22:58;;;;;;;3.92;2.97;;;;;;;25.52;57.02;99302.56;5030016;28;20048;-36
2022/07/31 00:25:24;;;;;;;3.85;2.90;;;;;;;25.58;56.75;99300.53;5029713;28;20033;-36
2022/07/31 00:27:50;;;;;;;4.10;2.97;;;;;;;25.70;56.88;99306.19;5029961;28;20028;-36
2022/07/31 00:30:16;;;;;;;3.33;3.03;;;;;;;25.57;56.76;99315.28;5030349;28;20029;-36
2022/07/31 00:32:42;;;;;;;8.10;3.22;;;;;;;25.52;57.69;99307.22;5030259;28;20044;-36
2022/07/31 00:35:09;;;;;;;3.88;3.22;;;;;;;25.73;56.89;99318.38;5032792;28;20025;-35
2022/07/31 00:37:36;;;;;;;3.40;3.10;;;;;;;25.54;58.06;99303.06;5034177;28;20026;-36
2022/07/31 00:40:04;;;;;;;9.25;6.03;;;;;;;25.74;58.03;99311.78;5033995;28;20064;-36
2022/07/31 00:42:29;;;;;;;8.32;6.90;;;;;;;25.59;58.47;99313.03;5034158;28;20029;-36
2022/07/31 00:44:55;;;;;;;9.80;6.90;;;;;;;25.71;57.96;99313.22;5034041;28;20388;-36
2022/07/31 00:47:20;;;;;;;7.13;5.40;;;;;;;25.55;58.46;99306.59;5033752;28;20095;-36
2022/07/31 00:49:46;;;;;;;5.85;4.22;;;;;;;25.56;58.46;99303.56;5033715;28;20025;-36
2022/07/31 00:52:12;;;;;;;4.05;3.38;;;;;;;25.51;58.47;99308.34;5033566;28;20033;-36
2022/07/31 00:54:38;;;;;;;4.25;3.38;;;;;;;25.42;58.74;99305.59;5033703;28;20104;-36
2022/07/31 00:57:05;;;;;;;3.80;3.40;;;;;;;25.30;59.63;99308.91;5033400;28;20036;-36
2022/07/31 00:59:30;;;;;;;3.65;3.10;;;;;;;25.32;58.95;99312.09;5033570;28;20549;-36
2022/07/31 01:01:57;;;;;;;3.50;3.20;;;;;;;25.28;59.23;99315.75;5033968;28;20104;-36
2022/07/31 01:04:25;;;;;;;3.92;3.53;;;;;;;25.19;58.86;99315.69;5033392;28;20037;-36
2022/07/31 01:06:53;;;;;;;4.00;3.17;;;;;;;25.17;59.11;99304.31;5033347;28;20433;-36
2022/07/31 01:09:19;;;;;;;4.10;3.50;;;;;;;25.29;58.43;99310.00;5033287;28;20100;-36
2022/07/31 01:11:52;;;;;;;4.10;3.30;;;;;;;25.22;58.38;99316.97;5033292;28;20557;-36
2022/07/31 01:14:26;;;;;;;3.50;3.20;;;;;;;25.21;58.50;99323.50;5033318;28;20456;-36
2022/07/31 01:16:54;;;;;;;3.72;3.33;;;;;;;25.27;57.94;99316.88;5051246;28;20111;-36
2022/07/31 01:19:33;;;;;;;4.40;3.67;;;;;;;25.25;57.95;99310.94;5053371;28;20086;-36
2022/07/31 01:22:16;;;;;;;9.38;7.80;;;;;;;25.11;58.01;99317.25;5053290;28;20048;-36
2022/07/31 01:25:02;;;;;;;3.53;3.17;;;;;;;25.15;58.14;99329.09;5053104;28;20455;-37
2022/07/31 01:27:52;;;;;;;4.13;3.30;;;;;;;24.87;58.41;99292.25;5052584;28;20067;-37
2022/07/31 01:30:21;;;;;;;3.17;2.83;;;;;;;25.03;58.76;99317.16;5052650;28;20029;-36
2022/07/31 01:32:49;;;;;;;3.30;3.00;;;;;;;25.07;58.30;99310.78;5052864;28;20037;-36
2022/07/31 01:35:23;;;;;;;3.13;2.83;;;;;;;25.01;58.78;99309.31;5052911;28;20103;-36
2022/07/31 01:38:05;;;;;;;3.45;3.10;;;;;;;24.85;59.17;99308.09;5052737;28;20037;-36
2022/07/31 01:40:36;;;;;;;5.05;3.30;;;;;;;24.92;59.31;99311.16;5052699;28;20025;-36
2022/07/31 01:43:07;;;;;;;4.00;3.47;;;;;;;24.53;60.73;99312.63;5052571;28;20835;-36
2022/07/31 01:45:35;;;;;;;4.20;3.60;;;;;;;24.51;61.24;99307.47;5052250;28;20036;-36
2022/07/31 01:48:03;;;;;;;4.97;3.55;;;;;;;24.40;61.87;99304.16;5052740;28;20032;-36
2022/07/31 01:50:31;;;;;;;4.95;4.05;;;;;;;24.27;62.90;99293.31;5051930;28;20029;-36
2022/07/31 01:52:59;;;;;;;6.93;4.05;;;;;;;24.16;63.44;99293.53;5052193;28;20032;-36
2022/07/31 01:55:26;;;;;;;4.88;4.18;;;;;;;24.30;63.09;99309.81;5052153;28;20032;-36
2022/07/31 01:57:54;;;;;;;5.85;4.38;;;;;;;24.20;63.64;99296.47;5052669;28;20145;-37
2022/07/31 02:00:20;;;;;;;7.25;4.40;;;;;;;24.44;63.06;99304.34;5050510;28;20039;-36
2022/07/31 02:02:48;;;;;;;4.43;4.00;;;;;;;24.33;63.48;99290.19;5052347;28;20040;-36
2022/07/31 02:05:17;;;;;;;4.88;4.20;;;;;;;24.42;63.14;99305.78;5052001;28;20389;-36
2022/07/31 02:07:44;;;;;;;6.88;4.60;;;;;;;24.15;63.89;99315.59;5052144;28;20024;-36
2022/07/31 02:10:13;;;;;;;4.93;4.28;;;;;;;23.97;64.69;99314.59;5052209;28;20051;-36
2022/07/31 02:12:42;;;;;;;6.35;4.70;;;;;;;23.83;65.73;99316.50;5051887;28;20139;-36
2022/07/31 02:15:12;;;;;;;5.15;4.65;;;;;;;23.57;66.86;99314.25;5051903;28;20057;-37
2022/07/31 02:17:40;;;;;;;6.07;4.60;;;;;;;23.73;66.32;99309.34;5052017;28;20036;-36
2022/07/31 02:20:08;;;;;;;5.82;4.80;;;;;;;23.56;66.56;99309.94;5052046;28;20040;-37
2022/07/31 02:22:34;;;;;;;6.63;4.90;;;;;;;23.66;66.25;99303.50;5051772;28;20056;-37
2022/07/31 02:25:01;;;;;;;5.95;4.55;;;;;;;23.75;65.90;99312.56;5051956;28;20021;-37
2022/07/31 02:27:29;;;;;;;6.10;4.55;;;;;;;23.75;65.29;99309.84;5045371;28;20454;-36
2022/07/31 02:29:58;;;;;;;5.30;4.57;;;;;;;24.02;64.38;99310.97;5031802;28;20026;-37
2022/07/31 02:32:25;;;;;;;6.50;4.90;;;;;;;23.72;65.10;99313.97;5031477;28;20033;-36
2022/07/31 02:34:54;;;;;;;7.03;4.80;;;;;;;23.79;65.20;99311.66;5031733;28;20115;-36
2022/07/31 02:37:21;;;;;;;7.88;4.75;;;;;;;23.59;65.94;99310.13;5031527;28;20025;-36
2022/07/31 02:39:51;;;;;;;5.65;4.38;;;;;;;23.97;64.12;99312.69;5031740;28;20450;-36
2022/07/31 02:42:18;;;;;;;5.28;4.40;;;;;;;23.74;64.97;99310.94;5031353;28;20060;-36
2022/07/31 02:44:44;;;;;;;5.63;4.68;;;;;;;23.65;65.00;99305.41;5031674;28;20033;-36
2022/07/31 02:47:11;;;;;;;5.13;4.55;;;;;;;23.73;65.00;99312.06;5031464;28;20044;-36
2022/07/31 02:49:37;;;;;;;7.25;4.40;;;;;;;23.85;64.30;99308.88;5031424;28;20056;-36
2022/07/31 02:52:03;;;;;;;5.53;4.40;;;;;;;23.86;64.22;99305.84;5031213;28;20037;-36
2022/07/31 02:54:29;;;;;;;4.80;4.15;;;;;;;23.79;64.57;99311.66;5031018;28;20037;-36
2022/07/31 02:56:55;;;;;;;5.65;4.20;;;;;;;23.77;64.66;99316.56;5030230;28;20079;-38
2022/07/31 02:59:21;;;;;;;8.30;4.18;;;;;;;23.67;64.86;99316.78;5031678;28;20040;-36
2022/07/31 03:01:47;;;;;;;5.75;4.00;;;;;;;23.82;64.23;99307.56;5031115;28;20393;-36
2022/07/31 03:04:12;;;;;;;6.93;4.20;;;;;;;23.70;64.35;99309.94;5030815;28;20033;-36
2022/07/31 03:06:38;;;;;;;5.07;4.00;;;;;;;23.79;64.03;99317.09;5031188;28;20040;-36
2022/07/31 03:09:03;;;;;;;6.28;4.40;;;;;;;23.75;64.19;99313.34;5031364;28;20029;-36
2022/07/31 03:11:28;;;;;;;6.40;3.88;;;;;;;23.66;63.85;99317.06;5030798;28;20056;-36
2022/07/31 03:13:57;;;;;;;5.00;3.88;;;;;;;23.58;64.73;99313.16;5030931;28;20039;-36
2022/07/31 03:16:24;;;;;;;5.70;3.93;;;;;;;23.59;64.22;99315.56;5044840;28;20518;-36
2022/07/31 03:18:51;;;;;;;4.40;3.92;;;;;;;23.66;63.74;99323.31;5050879;28;20496;-36
2022/07/31 03:21:18;;;;;;;4.90;3.80;;;;;;;23.77;63.56;99319.28;5050712;28;20025;-36
2022/07/31 03:23:45;;;;;;;6.07;4.05;;;;;;;23.75;63.29;99312.56;5050811;28;20087;-36
2022/07/31 03:26:10;;;;;;;14.20;11.52;;;;;;;23.73;63.47;99315.56;5050496;28;20102;-36
2022/07/31 03:28:36;;;;;;;12.80;9.88;;;;;;;23.75;63.19;99315.28;5050550;28;20423;-36
2022/07/31 03:31:02;;;;;;;5.70;4.03;;;;;;;23.74;62.91;99317.19;5050549;28;20083;-37
2022/07/31 03:33:28;;;;;;;6.22;3.85;;;;;;;23.74;62.87;99317.19;5050361;28;20028;-35
2022/07/31 03:35:54;;;;;;;5.85;3.97;;;;;;;23.87;62.57;99310.16;5049889;28;20150;-36
2022/07/31 03:38:20;;;;;;;5.28;3.70;;;;;;;23.73;62.76;99317.50;5050116;28;20039;-37
2022/07/31 03:40:46;;;;;;;6.95;4.03;;;;;;;23.79;62.77;99316.31;5050647;28;20052;-36
2022/07/31 03:43:12;;;;;;;6.03;3.92;;;;;;;23.67;62.62;99308.63;5050228;28;20037;-36
2022/07/31 03:45:38;;;;;;;5.10;3.97;;;;;;;23.77;62.56;99318.50;5050412;28;20041;-36
2022/07/31 03:48:04;;;;;;;6.88;4.03;;;;;;;23.88;61.91;99325.38;5049962;28;20074;-36
2022/07/31 03:50:30;;;;;;;5.82;3.90;;;;;;;24.22;61.53;99328.75;5050788;28;20028;-36
2022/07/31 03:52:57;;;;;;;5.00;3.67;;;;;;;24.36;60.69;99322.19;5050250;28;20029;-37
2022/07/31 03:55:23;;;;;;;5.22;3.83;;;;;;;24.81;58.93;99332.38;5049856;28;20032;-36
2022/07/31 03:57:50;;;;;;;6.03;3.95;;;;;;;24.81;57.73;99331.56;5049712;28;20037;-36
2022/07/31 04:00:16;;;;;;;5.03;3.70;;;;;;;24.64;59.52;99329.53;5049632;28;20055;-36
2022/07/31 04:02:42;;;;;;;5.25;3.40;;;;;;;24.75;59.18;99336.31;5049433;28;20029;-36
2022/07/31 04:05:08;;;;;;;4.10;3.70;;;;;;;24.83;58.48;99330.16;5049609;28;20035;-36
2022/07/31 04:07:33;;;;;;;4.22;3.72;;;;;;;24.94;58.19;99328.81;5050259;28;20087;-37
2022/07/31 04:10:00;;;;;;;4.68;3.50;;;;;;;25.13;57.52;99335.97;5056110;28;20028;-36
2022/07/31 04:12:26;;;;;;;4.78;3.70;;;;;;;25.15;57.41;99342.72;5055878;28;20082;-36
2022/07/31 04:14:51;;;;;;;3.72;3.15;;;;;;;25.38;56.51;99326.41;5055692;28;20025;-36
2022/07/31 04:17:17;;;;;;;3.67;3.30;;;;;;;25.64;55.57;99326.50;5056031;28;20389;-36
2022/07/31 04:19:42;;;;;;;7.13;3.20;;;;;;;25.92;54.54;99321.66;5054619;28;20036;-36
2022/07/31 04:22:08;;;;;;;4.15;3.63;;;;;;;26.01;54.44;99324.44;5055981;28;20466;-37
2022/07/31 04:24:33;;;;;;;4.80;3.22;;;;;;;26.10;54.57;99329.91;5056358;28;20025;-36
2022/07/31 04:26:59;;;;;;;3.90;3.50;;;;;;;26.07;54.55;99330.53;5056215;28;20124;-36
2022/07/31 04:29:27;;;;;;;4.07;3.47;;;;;;;26.32;53.89;99315.34;5055591;28;20029;-36
2022/07/31 04:31:53;;;;;;;6.65;3.50;;;;;;;26.51;53.14;99321.31;5056290;28;20175;-36
2022/07/31 04:34:18;;;;;;;4.20;3.42;;;;;;;26.69;52.45;99313.97;5056277;28;20540;-36
2022/07/31 04:36:44;;;;;;;4.38;3.50;;;;;;;26.81;52.05;99320.72;5054742;28;20028;-36
2022/07/31 04:39:09;;;;;;;4.57;3.72;;;;;;;26.84;51.73;99315.38;5056119;28;20021;-37
2022/07/31 04:41:34;;;;;;;8.15;4.00;;;;;;;27.05;50.95;99320.19;5056132;28;20364;-36
2022/07/31 04:44:00;;;;;;;4.82;3.80;;;;;;;27.29;50.64;99322.44;5056077;28;20114;-36
2022/07/31 04:46:26;;;;;;;5.32;3.92;;;;;;;27.49;50.03;99329.94;5055916;28;20055;-37
2022/07/31 04:48:51;;;;;;;5.43;4.30;;;;;;;28.17;47.93;99315.47;5056201;28;20416;-36
2022/07/31 04:51:23;;;;;;;5.22;3.97;;;;;;;27.91;48.53;99321.09;5055917;28;20437;-36
2022/07/31 04:53:49;;;;;;;6.05;3.80;;;;;;;27.90;48.79;99322.22;5055980;28;20017;-35
2022/07/31 04:56:32;;;;;;;7.82;3.70;;;;;;;28.16;47.87;99324.81;5055890;28;20408;-37
2022/07/31 04:58:59;;;;;;;4.53;3.40;;;;;;;28.32;47.59;99325.03;5054547;28;20017;-37
2022/07/31 05:01:24;;;;;;;4.82;3.22;;;;;;;28.99;45.76;99325.97;5055697;28;20021;-37
2022/07/31 05:03:49;;;;;;;4.70;3.90;;;;;;;29.24;45.25;99326.06;5055857;28;20036;-36
2022/07/31 05:06:15;;;;;;;4.57;3.38;;;;;;;28.38;46.57;99323.69;5055544;28;20025;-38
2022/07/31 05:08:40;;;;;;;11.30;8.98;;;;;;;28.82;45.51;99340.59;5053484;28;20445;-41
2022/07/31 05:11:21;;;;;;;5.05;4.10;;;;;;;29.08;45.08;99347.81;5048943;28;20497;-44
2022/07/31 05:13:55;;;;;;;7.30;3.65;;;;;;;29.29;44.38;99328.59;5054794;28;20451;-44
2022/07/31 05:16:21;;;;;;;5.50;3.65;;;;;;;29.67;43.68;99334.97;5040017;28;20021;-44
2022/07/31 05:18:48;;;;;;;4.50;3.22;;;;;;;29.87;43.13;99336.81;5035664;28;20120;-43
2022/07/31 05:21:14;;;;;;;4.57;3.42;;;;;;;29.40;43.56;99329.78;5030649;28;20038;-42
2022/07/31 05:23:41;;;;;;;5.60;3.58;;;;;;;29.25;44.14;99327.69;5030886;28;20132;-42
2022/07/31 05:26:08;;;;;;;4.43;3.45;;;;;;;29.86;42.75;99326.19;5030375;28;20047;-43
2022/07/31 05:28:34;;;;;;;3.75;3.03;;;;;;;30.13;42.20;99324.69;5030624;28;20044;-45
2022/07/31 05:30:59;;;;;;;5.65;3.30;;;;;;;31.10;40.37;99325.59;5031044;28;20029;-43
2022/07/31 05:33:25;;;;;;;4.72;3.10;;;;;;;30.69;40.29;99324.03;5030474;28;20068;-45
2022/07/31 05:35:50;;;;;;;3.50;3.20;;;;;;;31.06;39.87;99332.16;5030549;28;20390;-42
2022/07/31 05:38:16;;;;;;;4.85;3.00;;;;;;;30.85;40.36;99329.59;5030588;28;20029;-44
2022/07/31 05:40:41;;;;;;;3.35;3.03;;;;;;;31.51;39.57;99331.81;5030513;28;20021;-44
2022/07/31 05:43:07;;;;;;;3.58;3.08;;;;;;;31.47;37.99;99319.91;5030998;28;20083;-46
2022/07/31 05:45:32;;;;;;;3.78;2.90;;;;;;;32.30;37.35;99319.91;5030658;28;20497;-43
2022/07/31 05:47:58;;;;;;;3.25;2.90;;;;;;;32.25;37.15;99322.97;5032620;28;20100;-43
2022/07/31 05:50:23;;;;;;;3.75;2.95;;;;;;;32.07;37.27;99321.75;5032457;28;20039;-43
2022/07/31 05:52:48;;;;;;;4.28;2.95;;;;;;;32.34;36.62;99320.78;5032166;28;20025;-46
2022/07/31 05:55:14;;;;;;;9.13;2.80;;;;;;;32.81;36.14;99316.28;5031603;28;20104;-42
2022/07/31 05:57:40;;;;;;;5.18;3.05;;;;;;;33.57;34.70;99315.72;5032018;28;20028;-44
2022/07/31 06:00:07;;;;;;;5.03;2.95;;;;;;;33.80;33.58;99310.19;5031766;28;20022;-45
2022/07/31 06:02:33;;;;;;;5.65;2.85;;;;;;;33.41;34.15;99309.53;5032277;28;20094;-45
2022/07/31 06:04:58;;;;;;;3.55;2.70;;;;;;;33.72;33.42;99313.19;5031901;28;20029;-42
2022/07/31 06:07:24;;;;;;;6.85;2.80;;;;;;;33.78;33.76;99304.25;5031642;28;20028;-44
2022/07/31 06:09:49;;;;;;;3.78;2.80;;;;;;;34.14;33.25;99313.06;5032215;28;20029;-44
2022/07/31 06:12:15;;;;;;;3.35;2.63;;;;;;;34.51;32.15;99314.38;5031706;28;20546;-43
2022/07/31 06:14:40;;;;;;;5.90;5.35;;;;;;;34.20;32.79;99313.56;5031743;28;20017;-44
2022/07/31 06:17:06;;;;;;;23.50;18.70;;;;;;;34.16;32.98;99309.97;5030075;28;20028;-44
2022/07/31 06:19:33;;;;;;;6.47;2.83;;;;;;;34.26;33.32;99317.59;5030429;28;20025;-42
2022/07/31 06:21:59;;;;;;;2.90;2.58;;;;;;;34.24;33.25;99314.41;5031876;28;20026;-44
2022/07/31 06:24:24;;;;;;;3.92;2.78;;;;;;;34.65;32.67;99309.81;5031879;28;20465;-43
2022/07/31 06:26:55;;;;;;;4.38;2.80;;;;;;;34.46;32.56;99305.25;5032705;28;20028;-43
2022/07/31 06:29:21;;;;;;;3.78;3.00;;;;;;;34.44;32.05;99312.28;5032905;28;20028;-46
2022/07/31 06:31:46;;;;;;;3.60;2.97;;;;;;;34.33;32.55;99322.41;5046269;28;20064;-43
2022/07/31 06:34:12;;;;;;;4.35;2.80;;;;;;;34.70;32.15;99318.97;5040624;28;20471;-43
2022/07/31 06:36:38;;;;;;;6.07;2.88;;;;;;;35.10;31.83;99315.47;5051747;28;20029;-45
2022/07/31 06:39:04;;;;;;;3.83;2.85;;;;;;;34.35;32.65;99320.88;5051689;28;20456;-45
2022/07/31 06:41:48;;;;;;;3.00;2.70;;;;;;;34.62;32.62;99312.53;5033465;28;20377;-45
2022/07/31 06:44:18;;;;;;;3.58;2.80;;;;;;;34.69;32.12;99311.84;5031569;28;20033;-43
2022/07/31 06:46:44;;;;;;;2.97;2.65;;;;;;;34.79;32.18;99316.72;5037418;28;20048;-43
2022/07/31 06:49:09;;;;;;;6.97;6.22;;;;;;;34.32;32.57;99313.34;5042277;28;20121;-43
2022/07/31 06:51:35;;;;;;;9.90;8.70;;;;;;;34.50;32.64;99313.59;5051001;28;20028;-45
2022/07/31 06:54:02;;;;;;;3.53;3.00;;;;;;;34.57;32.04;99312.84;5050759;28;20025;-42
2022/07/31 06:56:29;;;;;;;3.40;3.10;;;;;;;35.01;31.58;99313.00;5050732;28;20468;-43
2022/07/31 06:58:54;;;;;;;3.30;2.97;;;;;;;35.67;30.87;99317.97;5050463;28;20103;-44
2022/07/31 07:01:20;;;;;;;4.45;3.33;;;;;;;35.54;31.18;99325.78;5050848;28;20553;-44
2022/07/31 07:03:46;;;;;;;3.92;3.22;;;;;;;34.17;33.08;99320.63;5050741;28;20052;-45
2022/07/31 07:06:12;;;;;;;4.28;3.38;;;;;;;35.06;32.07;99317.41;5050563;28;20342;-44
2022/07/31 07:08:37;;;;;;;5.43;3.75;;;;;;;34.84;31.55;99313.59;5050593;28;20189;-43
2022/07/31 07:11:02;;;;;;;7.10;4.38;;;;;;;34.77;32.20;99316.28;5050567;28;20037;-44
2022/07/31 07:13:28;;;;;;;5.38;3.85;;;;;;;33.88;33.37;99313.88;5050678;28;20029;-43
2022/07/31 07:15:53;;;;;;;5.20;4.13;;;;;;;33.41;34.52;99320.56;5040064;28;20017;-42
2022/07/31 07:18:20;;;;;;;4.50;3.78;;;;;;;33.30;34.50;99314.84;5030511;28;20036;-42
2022/07/31 07:20:47;;;;;;;5.53;4.10;;;;;;;33.66;33.67;99313.53;5030429;28;20017;-45
2022/07/31 07:23:12;;;;;;;4.55;4.05;;;;;;;33.93;33.61;99313.56;5030464;28;20026;-42
2022/07/31 07:25:38;;;;;;;5.53;4.40;;;;;;;33.92;33.59;99300.91;5030464;28;20026;-44
2022/07/31 07:28:03;;;;;;;5.00;4.38;;;;;;;32.26;36.27;99308.03;5030647;28;20109;-46
2022/07/31 07:30:29;;;;;;;7.38;4.30;;;;;;;32.97;35.58;99313.44;5029951;28;20041;-45
2022/07/31 07:32:55;;;;;;;5.53;4.32;;;;;;;33.74;34.66;99306.16;5030113;28;20017;-43
2022/07/31 07:35:20;;;;;;;7.00;4.15;;;;;;;34.14;34.06;99307.56;5030097;28;20473;-43
2022/07/31 07:37:46;;;;;;;5.18;4.20;;;;;;;34.15;33.96;99300.06;5030523;28;20041;-43
2022/07/31 07:40:13;;;;;;;4.82;4.40;;;;;;;33.47;35.14;99310.81;5030217;28;20031;-42
2022/07/31 07:42:38;;;;;;;6.38;4.50;;;;;;;33.29;36.25;99303.03;5029438;28;20041;-42
2022/07/31 07:45:04;;;;;;;6.40;4.43;;;;;;;34.38;34.78;99308.28;5030261;28;20029;-43
2022/07/31 07:47:30;;;;;;;5.72;4.38;;;;;;;34.40;34.04;99312.25;5030421;28;20029;-43
2022/07/31 07:49:55;;;;;;;8.20;4.88;;;;;;;34.89;33.76;99304.97;5030244;28;20060;-46
2022/07/31 07:52:21;;;;;;;6.28;4.90;;;;;;;35.05;33.32;99304.72;5029815;28;20028;-46
2022/07/31 07:54:46;;;;;;;5.22;4.40;;;;;;;35.12;33.04;99309.56;5029917;28;20087;-46
2022/07/31 07:57:16;;;;;;;7.03;4.50;;;;;;;35.39;32.13;99316.53;5030403;28;20028;-43
2022/07/31 07:59:41;;;;;;;5.05;4.55;;;;;;;35.36;32.43;99305.47;5028853;28;20116;-43
2022/07/31 08:02:06;;;;;;;6.35;4.90;;;;;;;34.90;33.25;99308.53;5030436;28;20104;-45
2022/07/31 08:04:32;;;;;;;6.13;5.13;;;;;;;34.77;33.84;99297.75;5030102;28;20671;-44
2022/07/31 08:06:57;;;;;;;6.00;4.80;;;;;;;34.62;33.93;99299.50;5030204;28;20025;-43
2022/07/31 08:09:23;;;;;;;5.50;5.00;;;;;;;35.04;32.51;99292.88;5030109;28;20103;-43
2022/07/31 08:11:49;;;;;;;5.10;4.60;;;;;;;35.73;31.78;99290.78;5029918;28;20417;-44
2022/07/31 08:14:14;;;;;;;6.57;4.80;;;;;;;35.66;31.87;99296.22;5029660;28;20113;-42
2022/07/31 08:16:39;;;;;;;5.35;4.05;;;;;;;36.06;30.51;99297.31;5029762;28;20038;-43
2022/07/31 08:19:05;;;;;;;6.40;4.32;;;;;;;35.85;30.71;99297.97;5029704;28;20042;-44
2022/07/31 08:21:30;;;;;;;7.68;4.57;;;;;;;35.14;32.09;99291.41;5029617;28;20413;-43
2022/07/31 08:23:56;;;;;;;5.20;4.70;;;;;;;34.77;32.28;99283.94;5029472;28;20021;-43
2022/07/31 08:26:21;;;;;;;4.90;4.28;;;;;;;35.32;32.07;99294.38;5029770;28;20033;-38
2022/07/31 08:28:47;;;;;;;5.78;4.38;;;;;;;34.68;33.25;99290.94;5029982;28;20025;-37
2022/07/31 08:31:14;;;;;;;7.90;4.40;;;;;;;34.69;32.51;99286.97;5028527;28;20025;-37
2022/07/31 08:33:39;;;;;;;4.88;4.35;;;;;;;35.03;32.30;99294.09;5029951;28;20505;-37
2022/07/31 08:36:07;;;;;;;7.53;4.82;;;;;;;34.75;32.61;99289.03;5029341;28;20036;-37
2022/07/31 08:38:34;;;;;;;5.10;4.60;;;;;;;34.81;32.21;99281.22;5029634;28;20029;-37
2022/07/31 08:40:59;;;;;;;5.28;4.78;;;;;;;34.61;32.99;99286.84;5029479;28;20037;-36
2022/07/31 08:43:26;;;;;;;6.22;4.78;;;;;;;35.18;31.92;99289.50;5029377;28;20108;-43
2022/07/31 08:45:52;;;;;;;6.25;4.72;;;;;;;35.77;31.26;99289.59;5029240;28;20127;-45
2022/07/31 08:48:22;;;;;;;5.10;4.60;;;;;;;35.90;32.01;99281.00;5029606;28;20083;-44
2022/07/31 08:50:48;;;;;;;6.10;4.90;;;;;;;35.78;31.39;99271.84;5029995;28;20033;-37
2022/07/31 08:53:15;;;;;;;5.85;5.25;;;;;;;34.90;32.38;99265.13;5029515;28;20040;-36
2022/07/31 08:55:42;;;;;;;6.03;5.28;;;;;;;34.91;32.86;99266.69;5031322;28;20083;-36
2022/07/31 08:58:08;;;;;;;6.43;5.82;;;;;;;35.29;32.96;99278.53;5033277;28;20025;-37
2022/07/31 09:00:33;;;;;;;6.45;5.38;;;;;;;34.76;33.00;99270.50;5033150;28;20063;-37
2022/07/31 09:02:59;;;;;;;8.48;5.75;;;;;;;35.48;32.92;99273.97;5033364;28;20485;-37
2022/07/31 09:05:25;;;;;;;7.50;5.78;;;;;;;36.05;32.28;99262.50;5033230;28;20484;-37
2022/07/31 09:07:51;;;;;;;6.90;5.55;;;;;;;35.71;32.62;99274.56;5033113;28;20091;-37
2022/07/31 09:10:27;;;;;;;6.70;6.00;;;;;;;35.27;33.25;99266.28;5033057;28;20143;-36
2022/07/31 09:12:53;;;;;;;7.45;5.43;;;;;;;36.04;31.56;99270.00;5032993;28;20072;-37
2022/07/31 09:15:25;;;;;;;6.00;5.50;;;;;;;35.93;31.30;99269.16;5032729;28;20083;-37
2022/07/31 09:17:51;;;;;;;5.70;5.20;;;;;;;35.81;30.79;99268.31;5033108;28;20033;-36
2022/07/31 09:20:21;;;;;;;5.95;5.30;;;;;;;35.22;32.08;99264.66;5033100;28;20025;-36
2022/07/31 09:23:04;;;;;;;5.70;5.20;;;;;;;35.56;31.96;99253.47;5032979;28;20056;-37
2022/07/31 09:25:30;;;;;;;5.93;5.32;;;;;;;36.13;31.10;99259.38;5033097;28;20042;-37
2022/07/31 09:28:01;;;;;;;6.28;5.68;;;;;;;36.18;30.18;99250.75;5032412;28;20025;-37
2022/07/31 09:30:26;;;;;;;6.28;5.68;;;;;;;36.55;30.40;99249.69;5032880;28;20048;-37
2022/07/31 09:32:52;;;;;;;6.55;5.88;;;;;;;36.18;31.08;99252.72;5033098;28;20029;-37
2022/07/31 09:35:18;;;;;;;6.35;5.75;;;;;;;35.57;31.56;99247.56;5032678;28;20049;-37
2022/07/31 09:37:46;;;;;;;9.23;6.30;;;;;;;35.72;31.69;99236.59;5032829;28;20036;-37
2022/07/31 09:40:12;;;;;;;8.00;6.63;;;;;;;36.50;30.56;99239.00;5032576;28;20532;-37
2022/07/31 09:42:43;;;;;;;12.05;9.68;;;;;;;37.01;30.17;99231.59;5032715;28;20022;-37
2022/07/31 09:45:20;;;;;;;5.90;5.30;;;;;;;36.60;30.13;99231.91;5032590;28;20106;-37
2022/07/31 09:47:46;;;;;;;5.88;5.38;;;;;;;36.66;30.28;99224.03;5032475;28;20123;-36
2022/07/31 09:50:12;;;;;;;5.45;4.95;;;;;;;36.27;30.42;99222.69;5031089;28;20029;-36
2022/07/31 09:52:37;;;;;;;5.50;5.00;;;;;;;36.91;28.87;99218.50;5032134;28;20114;-37
2022/07/31 09:55:06;;;;;;;5.75;5.25;;;;;;;36.91;28.87;99218.50;5032303;28;20448;-37
2022/07/31 09:57:34;;;;;;;5.82;5.22;;;;;;;36.97;28.43;99205.84;5032140;28;20049;-36
2022/07/31 10:00:00;;;;;;;6.35;4.38;;;;;;;36.16;29.08;99208.78;5031982;28;20404;-36
2022/07/31 10:02:28;;;;;;;5.68;4.45;;;;;;;35.50;29.75;99208.78;5031609;28;20053;-37
2022/07/31 10:04:55;;;;;;;5.18;4.72;;;;;;;35.41;30.25;99214.66;5031900;28;20040;-37
2022/07/31 10:07:25;;;;;;;4.80;4.40;;;;;;;35.82;29.08;99209.00;5031416;28;20034;-38
2022/07/31 10:09:54;;;;;;;4.60;4.20;;;;;;;36.50;28.42;99196.63;5032141;28;20496;-36
2022/07/31 10:12:21;;;;;;;5.75;4.50;;;;;;;36.56;28.34;99195.88;5031596;28;20060;-37
2022/07/31 10:14:50;;;;;;;4.78;4.35;;;;;;;36.55;28.11;99199.81;5033480;28;20057;-37
2022/07/31 10:17:19;;;;;;;;;;;;;;;36.34;28.93;99183.16;5052235;28;20021;-37
2022/07/31 10:19:48;;;;;;;4.63;4.18;;;;;;;36.47;27.86;99191.88;5052034;28;19913;-37
2022/07/31 10:22:18;;;;;;;4.47;4.07;;;;;;;36.66;27.84;99183.25;5051771;28;20132;-36
2022/07/31 10:24:46;;;;;;;4.50;4.10;;;;;;;36.77;27.51;99191.59;5051813;28;20408;-37
2022/07/31 10:27:14;;;;;;;4.75;3.67;;;;;;;36.85;27.46;99184.84;5051792;28;20052;-44
2022/07/31 10:29:40;;;;;;;3.90;3.50;;;;;;;37.13;26.60;99181.31;5052297;28;20037;-45
2022/07/31 10:32:07;;;;;;;4.32;3.80;;;;;;;37.15;26.81;99175.38;5051880;28;20043;-44
2022/07/31 10:34:33;;;;;;;4.07;3.47;;;;;;;37.34;26.05;99188.06;5051849;28;20437;-42
2022/07/31 10:37:06;;;;;;;4.30;3.25;;;;;;;37.07;26.18;99174.56;5051365;28;20021;-43
2022/07/31 10:39:42;;;;;;;4.80;3.13;;;;;;;36.97;25.97;99170.59;5051367;28;20051;-44
2022/07/31 10:42:45;;;;;;;3.80;3.20;;;;;;;37.28;25.55;99161.88;5051265;28;20036;-45
2022/07/31 10:45:13;;;;;;;3.25;2.95;;;;;;;37.59;25.17;99165.03;5049984;28;20053;-47
2022/07/31 10:47:39;;;;;;;3.47;3.15;;;;;;;36.59;26.58;99169.34;5051314;28;20031;-43
2022/07/31 10:50:06;;;;;;;4.03;3.22;;;;;;;37.06;25.61;99161.88;5052205;28;20032;-44
2022/07/31 10:52:34;;;;;;;3.88;3.17;;;;;;;37.14;25.86;99157.16;5051847;28;20033;-42
2022/07/31 10:55:00;;;;;;;3.22;2.92;;;;;;;37.44;25.69;99153.16;5051504;28;20025;-43
2022/07/31 10:57:33;;;;;;;3.15;2.88;;;;;;;37.46;24.66;99150.78;5050437;28;20031;-42
2022/07/31 11:00:10;;;;;;;4.00;3.28;;;;;;;37.92;25.39;99164.53;5051774;28;20467;-43
2022/07/31 11:02:36;;;;;;;3.42;3.13;;;;;;;36.85;25.99;99156.34;5052159;28;20020;-47
2022/07/31 11:05:13;;;;;;;3.58;3.20;;;;;;;36.32;26.79;99158.59;5040840;28;20034;-46
2022/07/31 11:08:00;;;;;;;3.10;2.80;;;;;;;36.82;26.14;99148.81;5032869;28;20034;-43
2022/07/31 11:10:25;;;;;;;3.60;3.00;;;;;;;37.04;25.26;99163.47;5031842;28;20049;-44
2022/07/31 11:13:03;;;;;;;3.40;3.10;;;;;;;36.76;25.96;99157.50;5031226;28;20049;-43
2022/07/31 11:15:30;;;;;;;4.03;3.30;;;;;;;37.04;26.23;99152.38;5029292;28;20102;-44
2022/07/31 11:17:55;;;;;;;3.38;3.05;;;;;;;36.67;25.94;99154.38;5028993;28;20029;-44
2022/07/31 11:20:27;;;;;;;3.25;2.95;;;;;;;36.65;26.61;99147.59;5030283;28;20047;-47
2022/07/31 11:23:13;;;;;;;3.25;3.00;;;;;;;37.25;26.02;99148.84;5030098;28;20451;-44
2022/07/31 11:25:40;;;;;;;2.78;2.42;;;;;;;37.51;24.10;99142.84;5029737;28;20029;-42
2022/07/31 11:28:23;;;;;;;57.38;47.38;;;;;;;37.92;24.11;99141.53;5029942;28;20091;-44
2022/07/31 11:31:06;;;;;;;4.47;2.90;;;;;;;37.41;24.15;99138.09;5029077;28;20036;-43
2022/07/31 11:33:42;;;;;;;3.13;2.70;;;;;;;37.05;24.60;99143.69;5028843;28;20135;-43
2022/07/31 11:36:14;;;;;;;2.60;2.40;;;;;;;36.46;24.66;99135.69;5029378;28;20101;-41